sensor_id;sensor_type;location;lat;lon;timestamp;P1;durP1;ratioP1;P2;durP2;ratioP2
31872;SDS011;22407;42.820;23.374;2022-11-20T00:01:59;5.88;;;2.00;;
31872;SDS011;22407;42.820;23.374;2022-11-20T00:04:24;5.93;;;2.10;;
31872;SDS011;22407;42.820;23.374;2022-11-20T00:06:50;6.70;;;2.20;;
31872;SDS011;22407;42.820;23.374;2022-11-20T00:09:15;6.57;;;2.20;;
31872;SDS011;22407;42.820;23.374;2022-11-20T00:11:40;8.03;;;3.00;;
31872;SDS011;22407;42.820;23.374;2022-11-20T00:14:06;8.87;;;4.23;;
31872;SDS011;22407;42.820;23.374;2022-11-20T00:16:32;7.57;;;2.77;;
31872;SDS011;22407;42.820;23.374;2022-11-20T00:18:57;8.23;;;3.42;;
31872;SDS011;22407;42.820;23.374;2022-11-20T00:21:23;11.43;;;3.97;;
31872;SDS011;22407;42.820;23.374;2022-11-20T00:23:50;12.10;;;4.63;;
31872;SDS011;22407;42.820;23.374;2022-11-20T00:26:17;8.18;;;3.00;;
31872;SDS011;22407;42.820;23.374;2022-11-20T00:28:42;11.03;;;3.47;;
31872;SDS011;22407;42.820;23.374;2022-11-20T00:31:12;6.18;;;2.30;;
31872;SDS011;22407;42.820;23.374;2022-11-20T00:33:38;8.63;;;2.92;;
31872;SDS011;22407;42.820;23.374;2022-11-20T00:36:08;9.02;;;3.03;;
31872;SDS011;22407;42.820;23.374;2022-11-20T00:38:34;8.35;;;3.03;;
31872;SDS011;22407;42.820;23.374;2022-11-20T00:41:00;8.33;;;3.43;;
31872;SDS011;22407;42.820;23.374;2022-11-20T00:43:26;8.07;;;3.05;;
31872;SDS011;22407;42.820;23.374;2022-11-20T00:45:58;7.67;;;2.80;;
31872;SDS011;22407;42.820;23.374;2022-11-20T00:48:24;7.43;;;2.57;;
31872;SDS011;22407;42.820;23.374;2022-11-20T00:50:49;6.35;;;2.30;;
31872;SDS011;22407;42.820;23.374;2022-11-20T00:53:15;7.10;;;2.50;;
31872;SDS011;22407;42.820;23.374;2022-11-20T00:55:40;6.23;;;2.40;;
31872;SDS011;22407;42.820;23.374;2022-11-20T00:58:06;6.10;;;2.23;;
31872;SDS011;22407;42.820;23.374;2022-11-20T01:00:31;7.35;;;2.20;;
31872;SDS011;22407;42.820;23.374;2022-11-20T01:02:57;7.10;;;2.20;;
31872;SDS011;22407;42.820;23.374;2022-11-20T01:05:22;23.53;;;9.10;;
31872;SDS011;22407;42.820;23.374;2022-11-20T01:07:47;13.52;;;5.80;;
31872;SDS011;22407;42.820;23.374;2022-11-20T01:10:13;24.97;;;7.63;;
31872;SDS011;22407;42.820;23.374;2022-11-20T01:12:38;18.93;;;5.80;;
31872;SDS011;22407;42.820;23.374;2022-11-20T01:15:04;11.95;;;3.65;;
31872;SDS011;22407;42.820;23.374;2022-11-20T01:17:30;7.53;;;2.60;;
31872;SDS011;22407;42.820;23.374;2022-11-20T01:19:55;8.83;;;2.50;;
31872;SDS011;22407;42.820;23.374;2022-11-20T01:22:21;7.40;;;2.70;;
31872;SDS011;22407;42.820;23.374;2022-11-20T01:24:46;9.47;;;2.90;;
31872;SDS011;22407;42.820;23.374;2022-11-20T01:27:12;8.23;;;2.63;;
31872;SDS011;22407;42.820;23.374;2022-11-20T01:29:37;8.10;;;2.50;;
31872;SDS011;22407;42.820;23.374;2022-11-20T01:32:02;6.97;;;2.10;;
31872;SDS011;22407;42.820;23.374;2022-11-20T01:34:28;7.67;;;2.20;;
31872;SDS011;22407;42.820;23.374;2022-11-20T01:36:53;8.50;;;2.40;;
31872;SDS011;22407;42.820;23.374;2022-11-20T01:39:20;5.87;;;2.20;;
31872;SDS011;22407;42.820;23.374;2022-11-20T01:41:47;7.03;;;2.40;;
31872;SDS011;22407;42.820;23.374;2022-11-20T01:47:20;7.85;;;2.72;;
31872;SDS011;22407;42.820;23.374;2022-11-20T01:49:48;8.05;;;2.70;;
31872;SDS011;22407;42.820;23.374;2022-11-20T01:52:33;9.40;;;3.10;;
31872;SDS011;22407;42.820;23.374;2022-11-20T01:55:10;8.63;;;3.55;;
31872;SDS011;22407;42.820;23.374;2022-11-20T01:57:37;7.03;;;2.60;;
31872;SDS011;22407;42.820;23.374;2022-11-20T02:00:14;8.13;;;2.60;;
31872;SDS011;22407;42.820;23.374;2022-11-20T02:02:42;7.07;;;2.20;;
31872;SDS011;22407;42.820;23.374;2022-11-20T02:05:16;7.95;;;2.00;;
31872;SDS011;22407;42.820;23.374;2022-11-20T02:07:43;6.63;;;2.00;;
31872;SDS011;22407;42.820;23.374;2022-11-20T02:10:08;7.20;;;2.20;;
31872;SDS011;22407;42.820;23.374;2022-11-20T02:12:34;6.43;;;1.80;;
31872;SDS011;22407;42.820;23.374;2022-11-20T02:15:17;6.78;;;1.80;;
31872;SDS011;22407;42.820;23.374;2022-11-20T02:17:43;5.60;;;1.67;;
31872;SDS011;22407;42.820;23.374;2022-11-20T02:20:09;6.87;;;1.70;;
31872;SDS011;22407;42.820;23.374;2022-11-20T02:22:56;5.63;;;1.50;;
31872;SDS011;22407;42.820;23.374;2022-11-20T02:25:20;5.82;;;1.60;;
31872;SDS011;22407;42.820;23.374;2022-11-20T02:27:45;6.13;;;1.50;;
31872;SDS011;22407;42.820;23.374;2022-11-20T02:30:11;5.00;;;1.50;;
31872;SDS011;22407;42.820;23.374;2022-11-20T02:32:37;5.10;;;1.50;;
31872;SDS011;22407;42.820;23.374;2022-11-20T02:35:35;5.30;;;1.60;;
31872;SDS011;22407;42.820;23.374;2022-11-20T02:37:54;4.85;;;1.30;;
31872;SDS011;22407;42.820;23.374;2022-11-20T02:40:21;5.35;;;1.70;;
31872;SDS011;22407;42.820;23.374;2022-11-20T02:42:46;7.00;;;1.65;;
31872;SDS011;22407;42.820;23.374;2022-11-20T02:45:12;4.90;;;1.63;;
31872;SDS011;22407;42.820;23.374;2022-11-20T02:47:37;5.57;;;1.60;;
31872;SDS011;22407;42.820;23.374;2022-11-20T02:50:03;4.85;;;1.30;;
31872;SDS011;22407;42.820;23.374;2022-11-20T02:52:28;4.53;;;1.30;;
31872;SDS011;22407;42.820;23.374;2022-11-20T02:54:53;4.47;;;1.30;;
31872;SDS011;22407;42.820;23.374;2022-11-20T02:57:19;4.93;;;1.30;;
31872;SDS011;22407;42.820;23.374;2022-11-20T02:59:44;4.83;;;1.50;;
31872;SDS011;22407;42.820;23.374;2022-11-20T03:02:10;5.43;;;1.35;;
31872;SDS011;22407;42.820;23.374;2022-11-20T03:04:35;5.77;;;1.40;;
31872;SDS011;22407;42.820;23.374;2022-11-20T03:07:00;5.77;;;1.37;;
31872;SDS011;22407;42.820;23.374;2022-11-20T03:09:26;5.50;;;1.40;;
31872;SDS011;22407;42.820;23.374;2022-11-20T03:11:51;6.30;;;1.70;;
31872;SDS011;22407;42.820;23.374;2022-11-20T03:14:16;4.90;;;1.40;;
31872;SDS011;22407;42.820;23.374;2022-11-20T03:16:42;5.97;;;1.30;;
31872;SDS011;22407;42.820;23.374;2022-11-20T03:19:07;5.33;;;1.40;;
31872;SDS011;22407;42.820;23.374;2022-11-20T03:21:33;5.70;;;1.57;;
31872;SDS011;22407;42.820;23.374;2022-11-20T03:23:58;6.60;;;1.63;;
31872;SDS011;22407;42.820;23.374;2022-11-20T03:26:24;6.33;;;1.50;;
31872;SDS011;22407;42.820;23.374;2022-11-20T03:28:57;5.57;;;1.60;;
31872;SDS011;22407;42.820;23.374;2022-11-20T03:31:24;8.07;;;1.80;;
31872;SDS011;22407;42.820;23.374;2022-11-20T03:33:50;7.38;;;1.80;;
31872;SDS011;22407;42.820;23.374;2022-11-20T03:36:16;5.20;;;1.60;;
31872;SDS011;22407;42.820;23.374;2022-11-20T03:38:42;6.20;;;1.97;;
31872;SDS011;22407;42.820;23.374;2022-11-20T03:41:09;5.77;;;1.87;;
31872;SDS011;22407;42.820;23.374;2022-11-20T03:43:35;5.60;;;1.73;;
31872;SDS011;22407;42.820;23.374;2022-11-20T03:46:00;7.03;;;1.60;;
31872;SDS011;22407;42.820;23.374;2022-11-20T03:48:26;5.13;;;1.58;;
31872;SDS011;22407;42.820;23.374;2022-11-20T03:50:51;6.30;;;1.53;;
31872;SDS011;22407;42.820;23.374;2022-11-20T03:53:17;5.78;;;1.60;;
31872;SDS011;22407;42.820;23.374;2022-11-20T03:55:42;5.53;;;1.70;;
31872;SDS011;22407;42.820;23.374;2022-11-20T03:58:08;6.90;;;1.70;;
31872;SDS011;22407;42.820;23.374;2022-11-20T04:00:34;5.93;;;1.77;;
31872;SDS011;22407;42.820;23.374;2022-11-20T04:03:00;6.97;;;1.80;;
31872;SDS011;22407;42.820;23.374;2022-11-20T04:05:25;6.97;;;1.60;;
31872;SDS011;22407;42.820;23.374;2022-11-20T04:07:50;4.90;;;1.53;;
31872;SDS011;22407;42.820;23.374;2022-11-20T04:10:16;7.03;;;1.60;;
31872;SDS011;22407;42.820;23.374;2022-11-20T04:12:41;6.70;;;1.80;;
31872;SDS011;22407;42.820;23.374;2022-11-20T04:15:06;7.83;;;1.70;;
31872;SDS011;22407;42.820;23.374;2022-11-20T04:17:32;5.97;;;1.80;;
31872;SDS011;22407;42.820;23.374;2022-11-20T04:19:57;5.60;;;1.70;;
31872;SDS011;22407;42.820;23.374;2022-11-20T04:22:23;6.77;;;1.80;;
31872;SDS011;22407;42.820;23.374;2022-11-20T04:24:48;7.07;;;2.10;;
31872;SDS011;22407;42.820;23.374;2022-11-20T04:27:13;9.23;;;2.03;;
31872;SDS011;22407;42.820;23.374;2022-11-20T04:29:39;4.50;;;1.23;;
31872;SDS011;22407;42.820;23.374;2022-11-20T04:32:04;5.72;;;1.50;;
31872;SDS011;22407;42.820;23.374;2022-11-20T04:34:29;4.10;;;1.20;;
31872;SDS011;22407;42.820;23.374;2022-11-20T04:36:55;4.83;;;1.20;;
31872;SDS011;22407;42.820;23.374;2022-11-20T04:39:20;4.43;;;1.10;;
31872;SDS011;22407;42.820;23.374;2022-11-20T04:41:45;5.20;;;1.10;;
31872;SDS011;22407;42.820;23.374;2022-11-20T04:44:11;5.13;;;1.20;;
31872;SDS011;22407;42.820;23.374;2022-11-20T04:46:38;5.40;;;1.20;;
31872;SDS011;22407;42.820;23.374;2022-11-20T04:49:04;5.70;;;1.35;;
31872;SDS011;22407;42.820;23.374;2022-11-20T04:51:29;4.77;;;1.17;;
31872;SDS011;22407;42.820;23.374;2022-11-20T04:53:55;4.40;;;1.08;;
31872;SDS011;22407;42.820;23.374;2022-11-20T04:56:20;7.03;;;1.30;;
31872;SDS011;22407;42.820;23.374;2022-11-20T04:58:46;4.43;;;1.20;;
31872;SDS011;22407;42.820;23.374;2022-11-20T05:01:12;4.53;;;1.13;;
31872;SDS011;22407;42.820;23.374;2022-11-20T05:03:38;5.00;;;1.30;;
31872;SDS011;22407;42.820;23.374;2022-11-20T05:06:04;4.38;;;1.10;;
31872;SDS011;22407;42.820;23.374;2022-11-20T05:08:30;6.43;;;1.23;;
31872;SDS011;22407;42.820;23.374;2022-11-20T05:11:06;5.03;;;1.40;;
31872;SDS011;22407;42.820;23.374;2022-11-20T05:13:31;4.45;;;1.15;;
31872;SDS011;22407;42.820;23.374;2022-11-20T05:18:28;5.80;;;1.48;;
31872;SDS011;22407;42.820;23.374;2022-11-20T05:20:54;8.30;;;2.57;;
31872;SDS011;22407;42.820;23.374;2022-11-20T05:23:20;57.33;;;20.53;;
31872;SDS011;22407;42.820;23.374;2022-11-20T05:25:45;58.73;;;26.47;;
31872;SDS011;22407;42.820;23.374;2022-11-20T05:28:11;37.53;;;18.60;;
31872;SDS011;22407;42.820;23.374;2022-11-20T05:30:36;6.10;;;1.60;;
31872;SDS011;22407;42.820;23.374;2022-11-20T05:33:01;5.07;;;1.50;;
31872;SDS011;22407;42.820;23.374;2022-11-20T05:35:27;9.43;;;4.57;;
31872;SDS011;22407;42.820;23.374;2022-11-20T05:37:52;6.50;;;2.97;;
31872;SDS011;22407;42.820;23.374;2022-11-20T05:40:17;6.47;;;2.27;;
31872;SDS011;22407;42.820;23.374;2022-11-20T05:42:43;4.47;;;1.43;;
31872;SDS011;22407;42.820;23.374;2022-11-20T05:45:08;5.30;;;1.40;;
31872;SDS011;22407;42.820;23.374;2022-11-20T05:47:34;4.80;;;1.83;;
31872;SDS011;22407;42.820;23.374;2022-11-20T05:50:00;6.32;;;2.20;;
31872;SDS011;22407;42.820;23.374;2022-11-20T05:52:27;6.10;;;2.53;;
31872;SDS011;22407;42.820;23.374;2022-11-20T05:54:53;5.43;;;1.98;;
31872;SDS011;22407;42.820;23.374;2022-11-20T05:57:18;6.00;;;1.73;;
31872;SDS011;22407;42.820;23.374;2022-11-20T05:59:43;7.30;;;2.30;;
31872;SDS011;22407;42.820;23.374;2022-11-20T06:02:09;7.30;;;2.20;;
31872;SDS011;22407;42.820;23.374;2022-11-20T06:04:34;6.00;;;2.10;;
31872;SDS011;22407;42.820;23.374;2022-11-20T06:07:00;6.97;;;1.55;;
31872;SDS011;22407;42.820;23.374;2022-11-20T06:09:25;5.20;;;1.20;;
31872;SDS011;22407;42.820;23.374;2022-11-20T06:11:50;6.70;;;2.03;;
31872;SDS011;22407;42.820;23.374;2022-11-20T06:14:16;4.30;;;1.50;;
31872;SDS011;22407;42.820;23.374;2022-11-20T06:16:41;4.90;;;1.10;;
31872;SDS011;22407;42.820;23.374;2022-11-20T06:19:07;5.90;;;1.10;;
31872;SDS011;22407;42.820;23.374;2022-11-20T06:21:32;4.60;;;1.00;;
31872;SDS011;22407;42.820;23.374;2022-11-20T06:23:57;5.50;;;1.50;;
31872;SDS011;22407;42.820;23.374;2022-11-20T06:26:24;5.43;;;1.50;;
31872;SDS011;22407;42.820;23.374;2022-11-20T06:28:50;5.90;;;1.25;;
31872;SDS011;22407;42.820;23.374;2022-11-20T06:31:19;5.63;;;1.52;;
31872;SDS011;22407;42.820;23.374;2022-11-20T06:33:45;5.30;;;1.23;;
31872;SDS011;22407;42.820;23.374;2022-11-20T06:36:11;7.07;;;1.73;;
31872;SDS011;22407;42.820;23.374;2022-11-20T06:38:37;6.07;;;1.50;;
31872;SDS011;22407;42.820;23.374;2022-11-20T06:41:03;7.72;;;1.90;;
31872;SDS011;22407;42.820;23.374;2022-11-20T06:43:28;6.65;;;1.40;;
31872;SDS011;22407;42.820;23.374;2022-11-20T06:45:54;5.70;;;1.60;;
31872;SDS011;22407;42.820;23.374;2022-11-20T06:48:20;5.07;;;1.60;;
31872;SDS011;22407;42.820;23.374;2022-11-20T06:50:45;5.60;;;1.73;;
31872;SDS011;22407;42.820;23.374;2022-11-20T06:53:11;8.00;;;1.60;;
31872;SDS011;22407;42.820;23.374;2022-11-20T06:55:36;5.60;;;1.90;;
31872;SDS011;22407;42.820;23.374;2022-11-20T06:58:01;7.65;;;2.25;;
31872;SDS011;22407;42.820;23.374;2022-11-20T07:00:27;5.90;;;1.60;;
31872;SDS011;22407;42.820;23.374;2022-11-20T07:02:52;7.33;;;1.93;;
31872;SDS011;22407;42.820;23.374;2022-11-20T07:05:18;6.47;;;2.38;;
31872;SDS011;22407;42.820;23.374;2022-11-20T07:07:43;5.93;;;1.70;;
31872;SDS011;22407;42.820;23.374;2022-11-20T07:10:08;7.63;;;1.90;;
31872;SDS011;22407;42.820;23.374;2022-11-20T07:12:34;7.93;;;2.03;;
31872;SDS011;22407;42.820;23.374;2022-11-20T07:14:59;10.13;;;2.10;;
31872;SDS011;22407;42.820;23.374;2022-11-20T07:17:24;7.40;;;2.20;;
31872;SDS011;22407;42.820;23.374;2022-11-20T07:19:50;6.53;;;1.97;;
31872;SDS011;22407;42.820;23.374;2022-11-20T07:22:15;5.90;;;2.00;;
31872;SDS011;22407;42.820;23.374;2022-11-20T07:24:41;6.57;;;1.93;;
31872;SDS011;22407;42.820;23.374;2022-11-20T07:27:06;8.47;;;2.40;;
31872;SDS011;22407;42.820;23.374;2022-11-20T07:29:32;9.07;;;2.70;;
31872;SDS011;22407;42.820;23.374;2022-11-20T07:31:57;7.10;;;2.00;;
31872;SDS011;22407;42.820;23.374;2022-11-20T07:34:23;7.83;;;2.33;;
31872;SDS011;22407;42.820;23.374;2022-11-20T07:36:48;6.97;;;1.80;;
31872;SDS011;22407;42.820;23.374;2022-11-20T07:39:13;12.13;;;3.53;;
31872;SDS011;22407;42.820;23.374;2022-11-20T07:41:39;9.43;;;2.57;;
31872;SDS011;22407;42.820;23.374;2022-11-20T07:44:04;6.70;;;2.42;;
31872;SDS011;22407;42.820;23.374;2022-11-20T07:46:30;7.53;;;2.60;;
31872;SDS011;22407;42.820;23.374;2022-11-20T07:48:56;7.47;;;2.67;;
31872;SDS011;22407;42.820;23.374;2022-11-20T07:51:22;8.47;;;2.20;;
31872;SDS011;22407;42.820;23.374;2022-11-20T07:53:50;7.75;;;2.60;;
31872;SDS011;22407;42.820;23.374;2022-11-20T07:56:15;7.57;;;2.53;;
31872;SDS011;22407;42.820;23.374;2022-11-20T07:58:40;7.43;;;2.50;;
31872;SDS011;22407;42.820;23.374;2022-11-20T08:01:06;9.67;;;2.80;;
31872;SDS011;22407;42.820;23.374;2022-11-20T08:03:32;8.05;;;2.80;;
31872;SDS011;22407;42.820;23.374;2022-11-20T08:06:01;8.27;;;2.80;;
31872;SDS011;22407;42.820;23.374;2022-11-20T08:08:27;9.38;;;2.83;;
31872;SDS011;22407;42.820;23.374;2022-11-20T08:10:52;7.88;;;2.50;;
31872;SDS011;22407;42.820;23.374;2022-11-20T08:13:17;8.53;;;2.50;;
31872;SDS011;22407;42.820;23.374;2022-11-20T08:16:02;7.68;;;2.88;;
31872;SDS011;22407;42.820;23.374;2022-11-20T08:18:27;8.23;;;2.58;;
31872;SDS011;22407;42.820;23.374;2022-11-20T08:20:52;7.27;;;2.23;;
31872;SDS011;22407;42.820;23.374;2022-11-20T08:23:18;8.73;;;2.80;;
31872;SDS011;22407;42.820;23.374;2022-11-20T08:25:43;7.77;;;2.73;;
31872;SDS011;22407;42.820;23.374;2022-11-20T08:28:09;7.57;;;2.47;;
31872;SDS011;22407;42.820;23.374;2022-11-20T08:30:34;10.57;;;2.63;;
31872;SDS011;22407;42.820;23.374;2022-11-20T08:33:01;9.55;;;2.38;;
31872;SDS011;22407;42.820;23.374;2022-11-20T08:35:26;7.05;;;2.13;;
31872;SDS011;22407;42.820;23.374;2022-11-20T08:37:52;10.97;;;4.40;;
31872;SDS011;22407;42.820;23.374;2022-11-20T08:40:17;12.93;;;4.83;;
31872;SDS011;22407;42.820;23.374;2022-11-20T08:42:49;9.75;;;2.90;;
31872;SDS011;22407;42.820;23.374;2022-11-20T08:45:15;11.17;;;2.93;;
31872;SDS011;22407;42.820;23.374;2022-11-20T08:47:40;7.83;;;2.60;;
31872;SDS011;22407;42.820;23.374;2022-11-20T08:50:07;7.55;;;3.05;;
31872;SDS011;22407;42.820;23.374;2022-11-20T08:52:32;9.45;;;2.53;;
31872;SDS011;22407;42.820;23.374;2022-11-20T08:54:58;7.47;;;2.80;;
31872;SDS011;22407;42.820;23.374;2022-11-20T08:57:23;7.53;;;2.53;;
31872;SDS011;22407;42.820;23.374;2022-11-20T08:59:49;7.63;;;2.40;;
31872;SDS011;22407;42.820;23.374;2022-11-20T09:02:14;7.88;;;2.38;;
31872;SDS011;22407;42.820;23.374;2022-11-20T09:04:40;8.57;;;2.23;;
31872;SDS011;22407;42.820;23.374;2022-11-20T09:07:05;8.05;;;2.20;;
31872;SDS011;22407;42.820;23.374;2022-11-20T09:09:31;16.07;;;2.97;;
31872;SDS011;22407;42.820;23.374;2022-11-20T09:11:57;13.50;;;3.33;;
31872;SDS011;22407;42.820;23.374;2022-11-20T09:14:23;16.30;;;5.23;;
31872;SDS011;22407;42.820;23.374;2022-11-20T09:16:54;9.77;;;3.50;;
31872;SDS011;22407;42.820;23.374;2022-11-20T09:19:19;11.00;;;3.80;;
31872;SDS011;22407;42.820;23.374;2022-11-20T09:21:44;10.90;;;3.50;;
31872;SDS011;22407;42.820;23.374;2022-11-20T09:24:10;12.43;;;4.70;;
31872;SDS011;22407;42.820;23.374;2022-11-20T09:26:35;12.27;;;5.40;;
31872;SDS011;22407;42.820;23.374;2022-11-20T09:29:00;23.57;;;12.57;;
31872;SDS011;22407;42.820;23.374;2022-11-20T09:31:26;13.25;;;5.25;;
31872;SDS011;22407;42.820;23.374;2022-11-20T09:33:51;11.47;;;4.60;;
31872;SDS011;22407;42.820;23.374;2022-11-20T09:36:17;11.47;;;4.23;;
31872;SDS011;22407;42.820;23.374;2022-11-20T09:38:44;12.43;;;4.40;;
31872;SDS011;22407;42.820;23.374;2022-11-20T09:41:10;13.50;;;4.88;;
31872;SDS011;22407;42.820;23.374;2022-11-20T09:43:46;12.93;;;4.95;;
31872;SDS011;22407;42.820;23.374;2022-11-20T09:46:17;17.33;;;5.30;;
31872;SDS011;22407;42.820;23.374;2022-11-20T09:48:57;14.57;;;5.22;;
31872;SDS011;22407;42.820;23.374;2022-11-20T09:54:05;11.80;;;4.85;;
31872;SDS011;22407;42.820;23.374;2022-11-20T09:56:36;17.08;;;7.57;;
31872;SDS011;22407;42.820;23.374;2022-11-20T09:59:04;23.50;;;11.13;;
31872;SDS011;22407;42.820;23.374;2022-11-20T10:01:31;29.17;;;13.25;;
31872;SDS011;22407;42.820;23.374;2022-11-20T10:07:08;17.27;;;6.05;;
31872;SDS011;22407;42.820;23.374;2022-11-20T10:09:39;8.57;;;3.50;;
31872;SDS011;22407;42.820;23.374;2022-11-20T10:15:06;11.47;;;4.77;;
31872;SDS011;22407;42.820;23.374;2022-11-20T10:17:50;14.57;;;8.02;;
31872;SDS011;22407;42.820;23.374;2022-11-20T10:25:24;10.80;;;4.90;;
31872;SDS011;22407;42.820;23.374;2022-11-20T10:30:26;13.80;;;5.20;;
31872;SDS011;22407;42.820;23.374;2022-11-20T10:32:53;10.73;;;4.40;;
31872;SDS011;22407;42.820;23.374;2022-11-20T10:35:24;13.02;;;4.95;;
31872;SDS011;22407;42.820;23.374;2022-11-20T10:37:56;12.90;;;5.22;;
31872;SDS011;22407;42.820;23.374;2022-11-20T10:40:26;9.70;;;3.17;;
31872;SDS011;22407;42.820;23.374;2022-11-20T10:42:54;9.45;;;3.28;;
31872;SDS011;22407;42.820;23.374;2022-11-20T10:47:50;50.28;;;10.20;;
31872;SDS011;22407;42.820;23.374;2022-11-20T10:50:18;54.90;;;8.90;;
31872;SDS011;22407;42.820;23.374;2022-11-20T10:58:17;15.48;;;5.10;;
31872;SDS011;22407;42.820;23.374;2022-11-20T11:00:46;13.93;;;5.10;;
31872;SDS011;22407;42.820;23.374;2022-11-20T11:03:26;14.27;;;5.03;;
31872;SDS011;22407;42.820;23.374;2022-11-20T11:08:23;19.85;;;8.15;;
31872;SDS011;22407;42.820;23.374;2022-11-20T11:10:52;14.52;;;5.93;;
31872;SDS011;22407;42.820;23.374;2022-11-20T11:13:19;14.90;;;5.10;;
31872;SDS011;22407;42.820;23.374;2022-11-20T11:15:45;10.27;;;3.30;;
31872;SDS011;22407;42.820;23.374;2022-11-20T11:18:10;8.73;;;2.67;;
31872;SDS011;22407;42.820;23.374;2022-11-20T11:20:36;8.57;;;2.60;;
31872;SDS011;22407;42.820;23.374;2022-11-20T11:23:01;7.95;;;2.10;;
31872;SDS011;22407;42.820;23.374;2022-11-20T11:25:31;5.63;;;1.50;;
31872;SDS011;22407;42.820;23.374;2022-11-20T11:28:03;9.30;;;3.60;;
31872;SDS011;22407;42.820;23.374;2022-11-20T11:30:29;12.40;;;5.80;;
31872;SDS011;22407;42.820;23.374;2022-11-20T11:33:02;6.97;;;2.20;;
31872;SDS011;22407;42.820;23.374;2022-11-20T11:35:28;8.18;;;3.08;;
31872;SDS011;22407;42.820;23.374;2022-11-20T11:38:06;14.63;;;4.40;;
31872;SDS011;22407;42.820;23.374;2022-11-20T11:40:33;39.10;;;12.00;;
31872;SDS011;22407;42.820;23.374;2022-11-20T11:43:01;76.78;;;20.90;;
31872;SDS011;22407;42.820;23.374;2022-11-20T11:45:26;30.55;;;9.10;;
31872;SDS011;22407;42.820;23.374;2022-11-20T11:47:52;26.70;;;8.13;;
31872;SDS011;22407;42.820;23.374;2022-11-20T11:50:22;30.20;;;9.75;;
31872;SDS011;22407;42.820;23.374;2022-11-20T11:55:36;11.00;;;4.10;;
31872;SDS011;22407;42.820;23.374;2022-11-20T12:01:01;11.20;;;4.72;;
31872;SDS011;22407;42.820;23.374;2022-11-20T12:03:32;18.73;;;9.77;;
31872;SDS011;22407;42.820;23.374;2022-11-20T12:06:00;12.27;;;6.20;;
31872;SDS011;22407;42.820;23.374;2022-11-20T12:08:37;9.97;;;3.13;;
31872;SDS011;22407;42.820;23.374;2022-11-20T12:11:10;9.55;;;3.33;;
31872;SDS011;22407;42.820;23.374;2022-11-20T12:16:02;8.30;;;3.43;;
31872;SDS011;22407;42.820;23.374;2022-11-20T12:18:28;8.93;;;4.13;;
31872;SDS011;22407;42.820;23.374;2022-11-20T12:25:51;6.63;;;2.30;;
31872;SDS011;22407;42.820;23.374;2022-11-20T12:30:56;6.53;;;2.10;;
31872;SDS011;22407;42.820;23.374;2022-11-20T12:36:21;17.45;;;4.43;;
31872;SDS011;22407;42.820;23.374;2022-11-20T12:39:01;22.75;;;5.40;;
31872;SDS011;22407;42.820;23.374;2022-11-20T12:41:44;10.30;;;2.95;;
31872;SDS011;22407;42.820;23.374;2022-11-20T12:58:15;9.70;;;2.63;;
31872;SDS011;22407;42.820;23.374;2022-11-20T13:00:54;6.40;;;1.80;;
31872;SDS011;22407;42.820;23.374;2022-11-20T13:06:10;11.73;;;3.25;;
31872;SDS011;22407;42.820;23.374;2022-11-20T13:08:38;20.25;;;9.32;;
31872;SDS011;22407;42.820;23.374;2022-11-20T13:11:15;14.82;;;5.25;;
31872;SDS011;22407;42.820;23.374;2022-11-20T13:19:15;13.70;;;3.95;;
31872;SDS011;22407;42.820;23.374;2022-11-20T13:21:42;11.88;;;4.05;;
31872;SDS011;22407;42.820;23.374;2022-11-20T13:24:27;8.93;;;2.85;;
31872;SDS011;22407;42.820;23.374;2022-11-20T13:27:02;8.37;;;2.53;;
31872;SDS011;22407;42.820;23.374;2022-11-20T13:29:27;8.45;;;2.72;;
31872;SDS011;22407;42.820;23.374;2022-11-20T13:32:01;7.00;;;2.45;;
31872;SDS011;22407;42.820;23.374;2022-11-20T13:34:27;7.38;;;2.15;;
31872;SDS011;22407;42.820;23.374;2022-11-20T13:36:54;9.20;;;3.30;;
31872;SDS011;22407;42.820;23.374;2022-11-20T13:41:55;8.60;;;2.70;;
31872;SDS011;22407;42.820;23.374;2022-11-20T13:44:34;6.50;;;2.03;;
31872;SDS011;22407;42.820;23.374;2022-11-20T13:47:03;10.50;;;2.97;;
31872;SDS011;22407;42.820;23.374;2022-11-20T13:49:38;6.30;;;1.50;;
31872;SDS011;22407;42.820;23.374;2022-11-20T14:02:17;6.93;;;2.33;;
31872;SDS011;22407;42.820;23.374;2022-11-20T14:04:46;8.88;;;2.63;;
31872;SDS011;22407;42.820;23.374;2022-11-20T14:07:12;10.88;;;3.15;;
31872;SDS011;22407;42.820;23.374;2022-11-20T14:09:38;9.47;;;2.70;;
31872;SDS011;22407;42.820;23.374;2022-11-20T14:12:04;7.72;;;2.00;;
31872;SDS011;22407;42.820;23.374;2022-11-20T14:14:46;9.45;;;2.20;;
31872;SDS011;22407;42.820;23.374;2022-11-20T14:17:19;7.32;;;2.08;;
31872;SDS011;22407;42.820;23.374;2022-11-20T14:19:45;10.40;;;2.55;;
31872;SDS011;22407;42.820;23.374;2022-11-20T14:24:46;6.40;;;2.20;;
31872;SDS011;22407;42.820;23.374;2022-11-20T14:27:15;5.95;;;1.98;;
31872;SDS011;22407;42.820;23.374;2022-11-20T14:29:41;6.87;;;1.93;;
31872;SDS011;22407;42.820;23.374;2022-11-20T14:32:07;7.10;;;2.03;;
31872;SDS011;22407;42.820;23.374;2022-11-20T14:34:35;6.57;;;1.55;;
31872;SDS011;22407;42.820;23.374;2022-11-20T14:37:03;5.85;;;1.70;;
31872;SDS011;22407;42.820;23.374;2022-11-20T14:39:33;7.20;;;2.30;;
31872;SDS011;22407;42.820;23.374;2022-11-20T14:41:58;8.93;;;2.70;;
31872;SDS011;22407;42.820;23.374;2022-11-20T14:44:27;7.03;;;1.97;;
31872;SDS011;22407;42.820;23.374;2022-11-20T14:46:54;5.32;;;1.77;;
31872;SDS011;22407;42.820;23.374;2022-11-20T14:49:20;7.57;;;1.95;;
31872;SDS011;22407;42.820;23.374;2022-11-20T14:51:45;6.13;;;1.77;;
31872;SDS011;22407;42.820;23.374;2022-11-20T14:54:15;5.80;;;1.90;;
31872;SDS011;22407;42.820;23.374;2022-11-20T14:56:41;7.22;;;2.00;;
31872;SDS011;22407;42.820;23.374;2022-11-20T14:59:07;17.48;;;6.18;;
31872;SDS011;22407;42.820;23.374;2022-11-20T15:01:33;5.95;;;1.50;;
31872;SDS011;22407;42.820;23.374;2022-11-20T15:04:05;20.15;;;7.00;;
31872;SDS011;22407;42.820;23.374;2022-11-20T15:06:30;6.88;;;1.60;;
31872;SDS011;22407;42.820;23.374;2022-11-20T15:08:56;5.20;;;1.40;;
31872;SDS011;22407;42.820;23.374;2022-11-20T15:11:29;13.17;;;3.00;;
31872;SDS011;22407;42.820;23.374;2022-11-20T15:13:55;8.93;;;1.83;;
31872;SDS011;22407;42.820;23.374;2022-11-20T15:16:21;18.90;;;4.70;;
31872;SDS011;22407;42.820;23.374;2022-11-20T15:18:48;10.95;;;2.95;;
31872;SDS011;22407;42.820;23.374;2022-11-20T15:21:25;5.70;;;1.70;;
31872;SDS011;22407;42.820;23.374;2022-11-20T15:23:51;8.05;;;2.47;;
31872;SDS011;22407;42.820;23.374;2022-11-20T15:26:26;25.90;;;10.93;;
31872;SDS011;22407;42.820;23.374;2022-11-20T15:28:52;18.20;;;7.10;;
31872;SDS011;22407;42.820;23.374;2022-11-20T15:31:19;6.90;;;2.37;;
31872;SDS011;22407;42.820;23.374;2022-11-20T15:33:44;6.40;;;1.50;;
31872;SDS011;22407;42.820;23.374;2022-11-20T15:36:10;5.50;;;1.57;;
31872;SDS011;22407;42.820;23.374;2022-11-20T15:38:35;15.27;;;4.80;;
31872;SDS011;22407;42.820;23.374;2022-11-20T15:41:00;9.83;;;3.00;;
31872;SDS011;22407;42.820;23.374;2022-11-20T15:43:26;6.90;;;2.13;;
31872;SDS011;22407;42.820;23.374;2022-11-20T15:45:53;5.87;;;1.80;;
31872;SDS011;22407;42.820;23.374;2022-11-20T15:51:00;7.22;;;2.70;;
31872;SDS011;22407;42.820;23.374;2022-11-20T15:53:27;35.55;;;7.90;;
31872;SDS011;22407;42.820;23.374;2022-11-20T15:56:02;28.67;;;9.90;;
31872;SDS011;22407;42.820;23.374;2022-11-20T15:58:27;15.77;;;3.78;;
31872;SDS011;22407;42.820;23.374;2022-11-20T16:00:53;19.57;;;5.03;;
31872;SDS011;22407;42.820;23.374;2022-11-20T16:03:19;9.98;;;2.80;;